Albion, NE

6:45 AM CDT on August 19, 2019 (GMT -0500)
Albion Municipal

Weather History for KBVN - June, 2019

Change the Weather History Date:

Tuesday, June 4, 2019

  Actual Average (KOFK) Record (KOFK)
Temperature  
Mean Temperature 74 °F -  
Max Temperature 88 °F 79 °F 98 °F (1977)
Min Temperature 61 °F 55 °F 38 °F (1990)
Cooling Degree Days 10    
Growing Degree Days 24 (Base 50)    
Moisture  
Dew Point 62 °F    
Average Humidity 66    
Maximum Humidity 95    
Minimum Humidity 38    
Precipitation  
Precipitation 0.00 in - - ()
Sea Level Pressure  
Sea Level Pressure 29.79 in    
Wind  
Wind Speed 6 mph (SSW)    
Max Wind Speed 12 mph    
Max Gust Speed 16 mph    
Visibility 10 miles    
Events      
Averages and records for this station are not official NWS values.
T = Trace of Precipitation, MM = Missing Value Source: NWS Daily Summary

Daily Weather History Graph

Daily Weather History Graph

Search for Another Location

Airport or City:

Astronomy

Jun. 04, 2019 Rise Set
Actual Time 5:58 AM CDT 9:02 PM CDT
Civil Twilight 5:25 AM CDT 9:36 PM CDT
Nautical Twilight 4:42 AM CDT 10:19 PM CDT
Astronomical Twilight 3:51 AM CDT 11:10 PM CDT
Moon 7:09 AM CDT (6/4) 10:32 PM CDT (6/4)
Length of Visible Light 16h 10m
Length of Day
15h 03m
New Moon, 2% of the Moon is Illuminated
Jun 4
New Moon
Jun 10
First Quarter
Jun 17
Full
Jun 25
Last Quarter
Jul 2
New

Hourly Weather History & Observations

Time (CDT) Temp. Heat Index Dew Point Humidity Pressure Visibility Wind Dir Wind Speed Gust Speed Precip Events Conditions
12:15 AM 67.1 °F - 64.4 °F 91% 29.86 in 10.0 mi SE 8.1 mph - N/A   Clear
12:35 AM 66.7 °F - 64.4 °F 92% 29.86 in 10.0 mi SE 5.8 mph - N/A   Clear
12:55 AM 66.0 °F - 64.0 °F 93% 29.85 in 10.0 mi SE 3.5 mph - N/A   Clear
1:15 AM 65.7 °F - 63.9 °F 94% 29.84 in 10.0 mi SE 3.5 mph - N/A   Clear
1:35 AM 65.3 °F - 63.9 °F 95% 29.83 in 10.0 mi SE 4.6 mph - N/A   Clear
1:55 AM 65.7 °F - 63.9 °F 94% 29.83 in 10.0 mi SSE 4.6 mph - N/A   Clear
2:15 AM 66.2 °F - 64.4 °F 94% 29.83 in 10.0 mi SSE 4.6 mph - N/A   Scattered Clouds
2:35 AM 66.2 °F - 64.4 °F 94% 29.82 in 10.0 mi SE 6.9 mph - N/A   Clear
2:55 AM 66.2 °F - 64.4 °F 94% 29.81 in 10.0 mi SSE 6.9 mph - N/A   Clear
3:15 AM 67.1 °F - 64.4 °F 91% 29.81 in 10.0 mi SSE 6.9 mph - N/A   Clear
3:35 AM 66.7 °F - 63.5 °F 89% 29.80 in 10.0 mi SE 4.6 mph - N/A   Clear
3:55 AM 67.6 °F - 62.4 °F 83% 29.79 in 10.0 mi Calm Calm - N/A   Clear
4:15 AM 67.5 °F - 61.3 °F 81% 29.79 in 10.0 mi Calm Calm - N/A   Clear
4:35 AM 65.5 °F - 61.7 °F 88% 29.79 in 10.0 mi Calm Calm - N/A   Clear
4:55 AM 64.4 °F - 61.7 °F 91% 29.79 in 10.0 mi Calm Calm - N/A   Clear
5:15 AM 64.4 °F - 61.2 °F 89% 29.79 in 10.0 mi Calm Calm - N/A   Clear
5:35 AM 63.0 °F - 60.8 °F 93% 29.80 in 10.0 mi Calm Calm - N/A   Clear
5:55 AM 62.8 °F - 60.6 °F 93% 29.80 in 10.0 mi Calm Calm - N/A   Scattered Clouds
6:15 AM 61.9 °F - 60.1 °F 94% 29.81 in 10.0 mi Calm Calm - N/A   Scattered Clouds
6:35 AM 62.1 °F - 60.3 °F 94% 29.82 in 10.0 mi Calm Calm - N/A   Clear
6:55 AM 65.5 °F - 59.0 °F 80% 29.82 in 10.0 mi South 3.5 mph - N/A   Clear
7:15 AM 65.7 °F - 59.7 °F 81% 29.83 in 10.0 mi SW 3.5 mph - N/A   Clear
7:35 AM 66.4 °F - 59.9 °F 80% 29.83 in 10.0 mi Calm Calm - N/A   Clear
7:55 AM 67.8 °F - 59.2 °F 74% 29.83 in 10.0 mi Calm Calm - N/A   Clear
8:15 AM 68.0 °F - 60.6 °F 77% 29.83 in 10.0 mi SW 4.6 mph - N/A   Clear
8:35 AM 68.9 °F - 60.8 °F 75% 29.83 in 10.0 mi South 6.9 mph - N/A   Clear
8:55 AM 69.4 °F - 62.2 °F 78% 29.83 in 10.0 mi South 9.2 mph - N/A   Clear
9:15 AM 69.6 °F - 61.9 °F 76% 29.84 in 10.0 mi South 6.9 mph - N/A   Clear
9:35 AM 70.2 °F - 62.8 °F 77% 29.85 in 10.0 mi South 6.9 mph - N/A   Scattered Clouds
9:55 AM 70.7 °F - 62.6 °F 75% 29.84 in 10.0 mi South 9.2 mph - N/A   Scattered Clouds
10:15 AM 71.4 °F - 63.0 °F 75% 29.82 in 10.0 mi South 10.4 mph - N/A   Clear
10:35 AM 73.8 °F - 63.3 °F 70% 29.82 in 10.0 mi South 9.2 mph - N/A   Clear
10:55 AM 76.3 °F - 63.1 °F 64% 29.81 in 10.0 mi SSW 6.9 mph - N/A   Clear
11:15 AM 77.5 °F - 62.2 °F 59% 29.81 in 10.0 mi SSW 6.9 mph - N/A   Clear
11:35 AM 79.5 °F - 61.9 °F 55% 29.80 in 10.0 mi SW 8.1 mph - N/A   Clear
11:55 AM 79.7 °F - 63.0 °F 56% 29.80 in 10.0 mi WSW 9.2 mph - N/A   Clear
12:15 PM 80.2 °F 81.6 °F 63.3 °F 56% 29.80 in 10.0 mi SW 8.1 mph - N/A   Clear
12:35 PM 81.5 °F 82.8 °F 63.1 °F 54% 29.80 in 10.0 mi SSW 11.5 mph - N/A   Clear
12:55 PM 82.2 °F 83.0 °F 61.7 °F 50% 29.80 in 10.0 mi SW 6.9 mph - N/A   Clear
1:15 PM 83.3 °F 83.7 °F 61.0 °F 47% 29.79 in 10.0 mi SSW 9.2 mph - N/A   Clear
1:35 PM 84.0 °F 85.4 °F 64.2 °F 51% 29.79 in 10.0 mi South 11.5 mph - N/A   Clear
1:55 PM 84.4 °F 85.6 °F 63.9 °F 50% 29.78 in 10.0 mi SSW 10.4 mph - N/A   Clear
2:15 PM 85.3 °F 86.1 °F 63.1 °F 47% 29.78 in 10.0 mi SSW 8.1 mph - N/A   Clear
2:35 PM 85.5 °F 86.3 °F 63.3 °F 47% 29.77 in 10.0 mi SW 9.2 mph 16.1 mph N/A   Clear
2:55 PM 86.2 °F 87.1 °F 63.1 °F 46% 29.77 in 10.0 mi SW 8.1 mph - N/A   Clear
3:15 PM 86.5 °F 86.8 °F 61.9 °F 43% 29.77 in 10.0 mi WSW 9.2 mph - N/A   Clear
3:35 PM 87.1 °F 87.2 °F 61.7 °F 42% 29.77 in 10.0 mi SW 8.1 mph - N/A   Clear
3:55 PM 87.6 °F 87.9 °F 61.9 °F 42% 29.77 in 10.0 mi SSW 10.4 mph - N/A   Clear
4:15 PM 87.8 °F 88.2 °F 62.1 °F 42% 29.76 in 10.0 mi SSW 10.4 mph - N/A   Clear
4:35 PM 88.2 °F 88.1 °F 61.3 °F 40% 29.76 in 10.0 mi WSW 6.9 mph 16.1 mph N/A   Clear
4:55 PM 88.2 °F 88.4 °F 61.9 °F 41% 29.75 in 10.0 mi SW 9.2 mph - N/A   Clear
5:15 PM 88.3 °F 88.6 °F 61.7 °F 41% 29.74 in 10.0 mi WSW 8.1 mph - N/A   Clear
5:35 PM 88.7 °F 88.6 °F 60.6 °F 39% 29.74 in 10.0 mi SW 10.4 mph - N/A   Clear
5:55 PM 88.7 °F 88.3 °F 59.9 °F 38% 29.73 in 10.0 mi WSW 8.1 mph 16.1 mph N/A   Clear
6:15 PM 88.2 °F 87.8 °F 60.1 °F 39% 29.72 in 10.0 mi WSW 9.2 mph - N/A   Clear
6:35 PM 88.5 °F 88.3 °F 61.0 °F 39% 29.72 in 10.0 mi SW 8.1 mph - N/A   Clear
6:55 PM 88.2 °F 87.8 °F 60.3 °F 39% 29.72 in 10.0 mi WSW 8.1 mph - N/A   Clear
7:15 PM 86.9 °F 87.2 °F 61.7 °F 43% 29.71 in 10.0 mi WSW 6.9 mph - N/A   Clear
7:35 PM 86.9 °F 86.7 °F 60.3 °F 41% 29.72 in 10.0 mi WSW 8.1 mph - N/A   Clear
7:55 PM 85.3 °F 85.7 °F 61.7 °F 45% 29.72 in 10.0 mi SW 5.8 mph - N/A   Clear
8:15 PM 84.2 °F 85.0 °F 62.8 °F 48% 29.72 in 10.0 mi SW 5.8 mph - N/A   Clear
8:35 PM 82.4 °F 83.9 °F 64.2 °F 54% 29.72 in 10.0 mi SW 4.6 mph - N/A   Clear
8:55 PM 82.2 °F 83.3 °F 63.0 °F 52% 29.73 in 10.0 mi SW 3.5 mph - N/A   Clear
9:15 PM 81.0 °F 82.3 °F 63.5 °F 55% 29.74 in 10.0 mi Calm Calm - N/A   Clear
9:35 PM 79.7 °F - 64.4 °F 59% 29.76 in 10.0 mi NNW 8.1 mph - N/A   Scattered Clouds
9:55 PM 77.7 °F - 64.4 °F 63% 29.77 in 10.0 mi NNW 6.9 mph - N/A   Scattered Clouds
10:15 PM 78.1 °F - 64.6 °F 63% 29.78 in 10.0 mi NNW 8.1 mph - N/A   Clear
10:55 PM 74.8 °F - 64.4 °F 70% 29.79 in 10.0 mi NW 8.1 mph - N/A   Clear
11:15 PM 73.9 °F - 63.7 °F 70% 29.79 in 10.0 mi NNW 9.2 mph - N/A   Clear
11:35 PM 73.2 °F - 63.0 °F 70% 29.79 in 10.0 mi NNW 8.1 mph - N/A   Clear
11:55 PM 71.8 °F - 62.6 °F 73% 29.80 in 10.0 mi NNW 4.6 mph - N/A   Clear